Time;durP1;ratioP1;P1;durP2;ratioP2;P2;SDS_P1;SDS_P2;PMS_P1;PMS_P2;Temp;Humidity;BMP_temperature;BMP_pressure;BME280_temperature;BME280_humidity;BME280_pressure;Samples;Min_cycle;Max_cycle;Signal;HPM_P1;HPM_P2
2021/05/01 00:01:02;;;;;;;0.80;0.80;;;8.20;99.90;;;8.44;100.00;-20911.88;4978078;28;20461;-71
2021/05/01 00:03:30;;;;;;;0.70;0.60;;;8.30;99.90;;;8.41;100.00;-20911.03;4996733;28;20437;-71
2021/05/01 00:05:59;;;;;;;0.70;0.60;;;8.20;99.90;;;8.36;100.00;-20909.78;4996371;28;20450;-70
2021/05/01 00:08:30;;;;;;;0.70;0.60;;;8.20;99.90;;;8.39;100.00;-20910.47;4989263;28;20516;-70
2021/05/01 00:11:01;;;;;;;0.70;0.60;;;8.20;99.90;;;8.35;100.00;-20909.34;4997362;28;20846;-70
2021/05/01 00:13:31;;;;;;;0.80;0.73;;;8.20;99.90;;;8.33;100.00;-20908.81;4995954;28;20430;-71
2021/05/01 00:16:01;;;;;;;0.70;0.60;;;8.10;99.90;;;8.32;100.00;-20908.53;4995667;28;20520;-71
2021/05/01 00:18:29;;;;;;;1.00;0.70;;;8.10;99.90;;;8.28;100.00;-20907.56;5004717;28;20433;-70
2021/05/01 00:20:57;;;;;;;0.70;0.60;;;8.10;99.90;;;8.27;100.00;-20907.13;4980913;28;20514;-70
2021/05/01 00:23:25;;;;;;;0.70;0.50;;;8.10;99.90;;;8.29;100.00;-20907.84;4996163;28;20455;-70
2021/05/01 00:25:51;;;;;;;0.70;0.60;;;8.20;99.90;;;8.28;100.00;-20907.41;4995742;28;20461;-71
2021/05/01 00:28:19;;;;;;;0.70;0.50;;;8.10;99.90;;;8.25;100.00;-20906.72;4997240;28;20525;-70
2021/05/01 00:30:47;;;;;;;0.70;0.60;;;8.10;99.90;;;8.23;100.00;-20906.16;4993161;28;20446;-70
2021/05/01 00:33:15;;;;;;;0.70;0.60;;;8.10;99.90;;;8.24;100.00;-20906.59;4993915;28;21000;-70
2021/05/01 00:35:43;;;;;;;0.70;0.60;;;8.10;99.90;;;8.22;100.00;-20906.03;4989419;28;21007;-70
2021/05/01 00:38:10;;;;;;;0.70;0.60;;;8.10;99.90;;;8.21;100.00;-20905.75;4993128;28;20843;-71
2021/05/01 00:40:37;;;;;;;0.80;0.60;;;8.00;99.90;;;8.28;100.00;-20907.41;4978171;28;20977;-70
2021/05/01 00:43:05;;;;;;;0.70;0.70;;;8.10;99.90;;;8.28;100.00;-20907.41;5009721;28;20804;-70
2021/05/01 00:45:32;;;;;;;0.70;0.60;;;8.10;99.90;;;8.26;100.00;-20906.88;4998329;28;20448;-70
2021/05/01 00:48:00;;;;;;;0.70;0.60;;;8.10;99.90;;;8.24;100.00;-20906.44;4986231;28;20858;-70
2021/05/01 00:50:28;;;;;;;0.70;0.50;;;8.00;99.90;;;8.19;100.00;-20905.19;4994043;28;20484;-70
2021/05/01 00:52:56;;;;;;;1.37;0.90;;;8.00;99.90;;;8.14;100.00;-20903.81;4995649;28;20826;-71
2021/05/01 00:55:36;;;;;;;1.27;0.70;;;8.00;99.90;;;8.09;100.00;-20902.41;4994113;28;20447;-70
2021/05/01 00:58:03;;;;;;;0.70;0.60;;;7.90;99.90;;;8.15;100.00;-20903.94;4979317;28;20442;-72
2021/05/01 01:00:59;;;;;;;0.80;0.70;;;7.90;99.90;;;8.11;100.00;-20902.84;5000950;28;20458;-70
2021/05/01 01:03:27;;;;;;;0.70;0.60;;;7.90;99.90;;;8.01;100.00;-20900.19;4997718;28;20870;-70
2021/05/01 01:05:55;;;;;;;0.70;0.50;;;7.80;99.90;;;7.99;100.00;-20899.78;4997016;28;20438;-70
2021/05/01 01:08:22;;;;;;;1.83;1.73;;;7.80;99.90;;;7.87;100.00;-20896.47;5001379;28;20813;-72
2021/05/01 01:10:51;;;;;;;0.70;0.70;;;7.70;99.90;;;7.83;100.00;-20895.34;4977073;28;20447;-70
2021/05/01 01:13:19;;;;;;;1.90;1.13;;;7.60;99.90;;;7.99;100.00;-20899.78;4995455;28;20767;-69
2021/05/01 01:15:47;;;;;;;0.93;0.93;;;7.70;99.90;;;7.78;100.00;-20893.97;4993886;28;20865;-68
2021/05/01 01:18:14;;;;;;;0.70;0.60;;;7.60;99.90;;;7.70;100.00;-20891.88;4993630;28;20508;-70
2021/05/01 01:20:42;;;;;;;1.00;0.90;;;7.60;99.90;;;7.74;100.00;-20893.00;4990944;28;20982;-69
2021/05/01 01:23:10;;;;;;;0.70;0.60;;;7.50;99.90;;;7.77;100.00;-20893.53;4992126;28;20453;-69
2021/05/01 01:25:37;;;;;;;0.70;0.60;;;7.60;99.90;;;7.86;100.00;-20896.03;4994113;28;20213;-70
2021/05/01 01:28:06;;;;;;;0.70;0.60;;;7.60;99.90;;;7.75;100.00;-20893.13;5004183;28;20484;-69
2021/05/01 01:30:35;;;;;;;0.70;0.60;;;7.50;99.90;;;7.77;100.00;-20893.53;4977030;28;20493;-69
2021/05/01 01:33:06;;;;;;;0.70;0.60;;;7.50;99.90;;;7.70;100.00;-20891.88;4977968;28;20274;-69
2021/05/01 01:35:34;;;;;;;0.70;0.50;;;7.40;99.90;;;7.55;100.00;-20887.72;4994225;28;20411;-70
2021/05/01 01:38:02;;;;;;;2.20;0.93;;;7.30;99.90;;;7.46;100.00;-20885.22;4977609;28;20276;-69
2021/05/01 01:40:31;;;;;;;0.70;0.60;;;7.20;99.90;;;7.44;100.00;-20884.66;4993640;28;20455;-70
2021/05/01 01:42:59;;;;;;;0.70;0.50;;;7.20;99.90;;;7.40;100.00;-20883.69;4987145;28;20631;-71
2021/05/01 01:45:28;;;;;;;0.70;0.60;;;7.20;99.90;;;7.35;100.00;-20882.16;4986073;28;20538;-69
2021/05/01 01:47:57;;;;;;;0.70;0.60;;;7.10;99.90;;;7.36;100.00;-20882.44;4991330;28;20445;-69
2021/05/01 01:50:26;;;;;;;0.70;0.60;;;7.10;99.90;;;7.30;100.00;-20880.78;4999078;28;20466;-70
2021/05/01 01:52:54;;;;;;;3.17;2.60;;;7.10;99.90;;;7.05;100.00;-20874.09;4970067;28;20231;-69
2021/05/01 01:55:24;;;;;;;1.13;1.02;;;6.90;99.90;;;6.85;100.00;-20868.53;4980750;28;20801;-70
2021/05/01 01:57:53;;;;;;;0.70;0.60;;;6.70;99.90;;;6.69;100.00;-20864.38;4995996;28;20191;-69
2021/05/01 02:00:23;;;;;;;0.70;0.60;;;6.60;99.90;;;6.60;100.00;-20861.75;4979044;28;20569;-69
2021/05/01 02:02:50;;;;;;;0.80;0.70;;;6.50;99.90;;;6.42;100.00;-20856.88;4994694;28;20184;-69
2021/05/01 02:05:18;;;;;;;0.70;0.60;;;6.30;99.90;;;6.38;100.00;-20855.75;4996659;28;20310;-70
2021/05/01 02:07:46;;;;;;;0.70;0.60;;;6.20;99.90;;;6.23;100.00;-20851.88;4993636;28;20213;-72
2021/05/01 02:10:16;;;;;;;0.70;0.60;;;6.10;99.90;;;6.13;100.00;-20848.94;4992479;28;20557;-69
2021/05/01 02:12:44;;;;;;;0.70;0.60;;;6.00;99.90;;;6.07;100.00;-20847.28;5003365;28;20286;-69
2021/05/01 02:15:17;;;;;;;0.80;0.70;;;6.00;99.90;;;5.97;100.00;-20844.78;4995209;28;20653;-71
2021/05/01 02:17:48;;;;;;;0.70;0.60;;;5.80;99.90;;;5.87;100.00;-20842.00;4996427;28;20215;-69
2021/05/01 02:20:18;;;;;;;0.70;0.60;;;5.80;99.90;;;5.84;100.00;-20841.16;5014119;28;20179;-68
2021/05/01 02:22:45;;;;;;;0.70;0.60;;;5.70;99.90;;;5.77;100.00;-20839.34;5009092;28;20215;-70
2021/05/01 02:25:13;;;;;;;1.55;0.82;;;5.60;99.90;;;5.72;100.00;-20837.97;5003440;28;20279;-69
2021/05/01 02:27:41;;;;;;;0.70;0.70;;;5.60;99.90;;;5.63;100.00;-20835.44;4993996;28;20192;-71
2021/05/01 02:30:12;;;;;;;0.80;0.65;;;5.50;99.90;;;5.61;100.00;-20834.91;4997199;28;20701;-70
2021/05/01 02:32:40;;;;;;;0.73;0.65;;;5.50;99.90;;;5.64;100.00;-20835.72;4993250;28;20242;-68
2021/05/01 02:35:12;;;;;;;0.70;0.60;;;5.50;99.90;;;5.66;100.00;-20836.28;4993833;28;20294;-71
2021/05/01 02:37:41;;;;;;;0.75;0.63;;;5.50;99.90;;;5.57;100.00;-20833.78;4992729;28;20242;-71
2021/05/01 02:40:11;;;;;;;0.80;0.70;;;5.40;99.90;;;5.46;100.00;-20830.72;4997233;28;20884;-69
2021/05/01 02:42:39;;;;;;;0.70;0.60;;;5.30;99.90;;;5.38;100.00;-20828.63;5013499;28;20175;-69
2021/05/01 02:45:09;;;;;;;0.70;0.60;;;5.20;99.90;;;5.37;100.00;-20828.22;4987376;28;20250;-69
2021/05/01 02:47:37;;;;;;;0.70;0.60;;;5.20;99.90;;;5.37;100.00;-20828.34;4993717;28;20195;-71
2021/05/01 02:50:08;;;;;;;0.70;0.60;;;5.10;99.90;;;5.35;100.00;-20827.66;4991278;28;20218;-69
2021/05/01 02:52:36;;;;;;;0.77;0.73;;;5.10;99.90;;;5.27;100.00;-20825.56;4992086;28;20584;-69
2021/05/01 02:55:06;;;;;;;0.70;0.60;;;5.10;99.90;;;5.19;100.00;-20823.50;4993303;28;20241;-70
2021/05/01 02:57:33;;;;;;;0.80;0.80;;;5.00;99.90;;;5.17;100.00;-20822.78;4992606;28;20192;-69
2021/05/01 03:00:02;;;;;;;1.90;1.00;;;5.00;99.90;;;5.08;100.00;-20820.41;4986154;28;20249;-69
2021/05/01 03:02:30;;;;;;;0.80;0.70;;;4.90;99.90;;;5.10;100.00;-20820.97;4992754;28;20723;-69
2021/05/01 03:04:59;;;;;;;0.70;0.65;;;4.90;99.90;;;5.09;100.00;-20820.69;4993810;28;20555;-72
2021/05/01 03:07:32;;;;;;;1.33;1.05;;;4.90;99.90;;;4.97;100.00;-20817.34;4993524;28;20230;-69
2021/05/01 03:10:00;;;;;;;0.75;0.68;;;4.80;99.90;;;4.92;100.00;-20815.97;4991429;28;20219;-70
2021/05/01 03:12:27;;;;;;;0.70;0.60;;;4.70;99.90;;;4.88;100.00;-20814.84;4991730;28;20188;-69
2021/05/01 03:14:54;;;;;;;0.73;0.65;;;4.70;99.90;;;4.88;100.00;-20814.84;4993955;28;20250;-69
2021/05/01 03:17:21;;;;;;;0.80;0.75;;;4.70;99.90;;;4.83;100.00;-20813.75;4993642;28;20224;-69
2021/05/01 03:19:48;;;;;;;0.70;0.60;;;4.70;99.90;;;4.78;100.00;-20812.22;4993243;28;20188;-70
2021/05/01 03:22:15;;;;;;;0.70;0.60;;;4.60;99.90;;;4.70;100.00;-20810.13;4993974;28;20172;-69
2021/05/01 03:24:44;;;;;;;0.70;0.60;;;4.50;99.90;;;4.72;100.00;-20810.53;4993146;28;20764;-70
2021/05/01 03:27:10;;;;;;;0.80;0.70;;;4.60;99.90;;;4.70;100.00;-20810.13;4992058;28;20586;-69
2021/05/01 03:29:39;;;;;;;0.80;0.80;;;4.60;99.90;;;4.74;100.00;-20811.09;5004567;28;20621;-69
2021/05/01 03:32:06;;;;;;;0.70;0.70;;;4.50;99.90;;;4.71;100.00;-20810.41;4993841;28;20180;-69
2021/05/01 03:34:34;;;;;;;0.70;0.60;;;4.60;99.90;;;4.65;100.00;-20808.59;4995290;28;20227;-69
2021/05/01 03:37:01;;;;;;;0.80;0.70;;;4.50;99.90;;;4.64;100.00;-20808.44;4996222;28;20219;-69
2021/05/01 03:39:29;;;;;;;0.70;0.60;;;4.50;99.90;;;4.57;100.00;-20806.63;4994737;28;20215;-69
2021/05/01 03:41:59;;;;;;;0.80;0.80;;;4.50;99.90;;;4.54;100.00;-20805.66;4995873;28;20210;-69
2021/05/01 03:44:27;;;;;;;1.33;1.13;;;4.30;99.90;;;4.48;100.00;-20804.00;5000685;28;20191;-69
2021/05/01 03:46:55;;;;;;;1.15;1.05;;;4.40;99.90;;;4.48;100.00;-20804.00;4980632;28;20719;-69
2021/05/01 03:49:22;;;;;;;0.70;0.70;;;4.30;99.90;;;4.45;100.00;-20803.16;4981947;28;20216;-69
2021/05/01 03:51:49;;;;;;;0.80;0.70;;;4.30;99.90;;;4.47;100.00;-20803.72;4991661;28;20192;-69
2021/05/01 03:54:17;;;;;;;0.80;0.77;;;4.30;99.90;;;4.50;100.00;-20804.69;4996220;28;20286;-69
2021/05/01 03:56:44;;;;;;;0.88;0.88;;;4.30;99.90;;;4.47;100.00;-20803.72;4995741;28;20203;-68
2021/05/01 03:59:15;;;;;;;0.80;0.68;;;4.20;99.90;;;4.57;100.00;-20806.63;4983747;28;20234;-69
2021/05/01 04:01:42;;;;;;;0.80;0.70;;;4.40;99.90;;;4.71;100.00;-20810.41;5015236;28;20559;-68
2021/05/01 04:04:10;;;;;;;0.70;0.60;;;4.50;99.90;;;4.90;100.00;-20815.41;5001432;28;20175;-71
2021/05/01 04:06:38;;;;;;;1.45;1.35;;;4.50;99.90;;;4.91;100.00;-20815.69;4996893;28;20631;-68
2021/05/01 04:09:06;;;;;;;0.70;0.60;;;4.60;99.90;;;4.98;100.00;-20817.63;4996237;28;20254;-68
2021/05/01 04:11:33;;;;;;;0.80;0.80;;;4.70;99.90;;;5.08;100.00;-20820.41;4979269;28;20561;-68
2021/05/01 04:14:00;;;;;;;0.70;0.60;;;4.70;99.90;;;5.18;100.00;-20823.19;4996426;28;20604;-68
2021/05/01 04:16:28;;;;;;;0.70;0.70;;;4.80;99.90;;;5.33;100.00;-20827.25;4978774;28;20613;-73
2021/05/01 04:18:56;;;;;;;0.70;0.60;;;5.00;99.90;;;5.40;100.00;-20829.06;5007054;28;20191;-69
2021/05/01 04:21:24;;;;;;;0.70;0.60;;;5.00;99.90;;;5.42;100.00;-20829.59;4982447;28;20273;-69
2021/05/01 04:23:51;;;;;;;0.70;0.60;;;5.10;99.90;;;5.44;100.00;-20830.31;4998257;28;20716;-69
2021/05/01 04:26:20;;;;;;;0.70;0.60;;;5.10;99.90;;;5.44;100.00;-20830.16;5004988;28;20642;-69
2021/05/01 04:28:47;;;;;;;0.80;0.70;;;5.10;99.90;;;5.48;100.00;-20831.28;4996558;28;20196;-68
2021/05/01 04:31:15;;;;;;;1.33;1.00;;;5.10;99.90;;;5.52;100.00;-20832.38;4996149;28;20192;-68
2021/05/01 04:33:42;;;;;;;0.70;0.60;;;5.10;99.90;;;5.68;100.00;-20836.84;4995873;28;20192;-68
2021/05/01 04:36:10;;;;;;;0.70;0.60;;;5.30;99.90;;;5.73;100.00;-20838.09;4995168;28;20274;-69
2021/05/01 04:38:37;;;;;;;0.70;0.60;;;5.30;99.90;;;5.80;100.00;-20840.19;4994400;28;20216;-68
2021/05/01 04:41:06;;;;;;;5.15;1.35;;;5.40;99.90;;;5.89;100.00;-20842.41;4993830;28;20273;-70
2021/05/01 04:43:34;;;;;;;0.70;0.70;;;5.40;99.90;;;5.94;100.00;-20843.81;5005582;28;20682;-69
2021/05/01 04:46:01;;;;;;;0.70;0.60;;;5.50;99.90;;;5.95;100.00;-20844.22;4994308;28;20690;-70
2021/05/01 04:48:29;;;;;;;0.70;0.60;;;5.50;99.90;;;6.00;100.00;-20845.63;4996155;28;20254;-69
2021/05/01 04:50:57;;;;;;;0.70;0.60;;;5.50;99.90;;;6.06;100.00;-20847.13;4996039;28;20723;-68
2021/05/01 04:53:25;;;;;;;1.10;1.00;;;5.60;99.90;;;6.10;100.00;-20848.13;5004727;28;20216;-69
2021/05/01 04:55:53;;;;;;;1.27;1.05;;;5.60;99.90;;;6.21;100.00;-20851.19;4983076;28;20195;-68
2021/05/01 04:58:23;;;;;;;0.70;0.60;;;5.60;99.90;;;6.23;100.00;-20851.88;4978273;28;20536;-69
2021/05/01 05:00:52;;;;;;;0.95;0.90;;;5.70;99.90;;;6.49;100.00;-20858.97;4989293;28;20195;-69
2021/05/01 05:03:19;;;;;;;0.70;0.60;;;5.70;99.90;;;6.50;100.00;-20859.09;4981760;28;20544;-70
2021/05/01 05:05:46;;;;;;;0.70;0.50;;;5.90;99.90;;;6.71;100.00;-20864.94;4997604;28;20195;-68
2021/05/01 05:08:15;;;;;;;0.70;0.60;;;5.90;99.90;;;7.00;100.00;-20872.84;4997513;28;20210;-71
2021/05/01 05:10:42;;;;;;;2.22;2.05;;;6.00;99.90;;;6.96;100.00;-20871.59;5006866;28;20204;-70
2021/05/01 05:13:09;;;;;;;0.70;0.50;;;6.20;99.90;;;7.18;100.00;-20877.72;4998093;28;20191;-69
2021/05/01 05:15:37;;;;;;;0.70;0.60;;;6.20;99.90;;;7.21;100.00;-20878.41;5002074;28;20191;-69
2021/05/01 05:18:04;;;;;;;0.70;0.65;;;6.30;99.90;;;7.18;100.00;-20877.72;4993967;28;20429;-70
2021/05/01 05:20:32;;;;;;;0.90;0.90;;;6.30;99.90;;;7.06;100.00;-20874.38;4974603;28;20223;-68
2021/05/01 05:22:59;;;;;;;0.70;0.60;;;6.20;99.90;;;6.98;100.00;-20872.28;4958632;28;20551;-69
2021/05/01 05:25:26;;;;;;;0.70;0.50;;;6.20;99.90;;;6.87;100.00;-20869.09;4986216;28;20210;-69
2021/05/01 05:27:54;;;;;;;0.70;0.60;;;6.20;99.90;;;6.90;100.00;-20870.06;4995508;28;20590;-68
2021/05/01 05:30:22;;;;;;;0.75;0.75;;;6.20;99.90;;;6.82;100.00;-20867.72;5001883;28;20223;-69
2021/05/01 05:32:49;;;;;;;1.00;0.90;;;6.20;99.90;;;6.77;100.00;-20866.59;4997318;28;20188;-69
2021/05/01 05:35:18;;;;;;;0.80;0.80;;;6.20;99.90;;;6.89;100.00;-20869.66;5004597;28;20188;-70
2021/05/01 05:37:45;;;;;;;0.70;0.60;;;6.20;99.90;;;6.84;100.00;-20868.28;4994610;28;20295;-68
2021/05/01 05:40:13;;;;;;;1.00;0.90;;;6.20;99.90;;;6.81;100.00;-20867.44;5001930;28;20194;-69
2021/05/01 05:42:42;;;;;;;0.70;0.60;;;6.20;99.90;;;6.79;100.00;-20867.03;4997384;28;20191;-69
2021/05/01 05:45:11;;;;;;;0.70;0.60;;;6.30;99.90;;;6.91;100.00;-20870.22;4984107;28;20188;-70
2021/05/01 05:47:40;;;;;;;0.70;0.60;;;6.40;99.90;;;7.15;100.00;-20876.75;4994771;28;20200;-69
2021/05/01 05:50:08;;;;;;;0.70;0.60;;;6.50;99.90;;;7.32;100.00;-20881.31;4994330;28;20202;-70
2021/05/01 05:52:35;;;;;;;2.65;1.55;;;6.60;99.90;;;7.37;100.00;-20882.72;4970039;28;20196;-69
2021/05/01 05:55:04;;;;;;;0.70;0.50;;;6.70;99.90;;;7.52;100.00;-20886.88;4982183;28;20196;-70
2021/05/01 05:57:32;;;;;;;0.70;0.60;;;6.80;99.90;;;7.68;100.00;-20891.19;4993909;28;20668;-70
2021/05/01 06:00:01;;;;;;;0.70;0.60;;;6.90;99.90;;;8.05;100.00;-20901.31;4995892;28;20185;-70
2021/05/01 06:02:28;;;;;;;0.70;0.60;;;7.10;99.90;;;8.15;100.00;-20903.94;4989194;28;20200;-69
2021/05/01 06:05:04;;;;;;;0.70;0.50;;;7.10;99.90;;;8.18;100.00;-20904.78;4993559;28;20205;-68
2021/05/01 06:07:36;;;;;;;0.70;0.60;;;7.10;99.90;;;8.27;100.00;-20907.13;4975805;28;20452;-70
2021/05/01 06:10:06;;;;;;;0.70;0.60;;;7.20;99.90;;;8.45;100.00;-20912.28;4997036;28;20477;-70
2021/05/01 06:12:36;;;;;;;0.70;0.60;;;7.40;99.90;;;8.55;100.00;-20914.91;4983493;28;20211;-69
2021/05/01 06:15:07;;;;;;;0.80;0.70;;;7.60;99.90;;;8.72;100.00;-20919.50;4993948;28;20187;-68
2021/05/01 06:17:35;;;;;;;0.70;0.50;;;7.70;99.90;;;8.89;100.00;-20924.06;4976098;28;20863;-71
2021/05/01 06:20:05;;;;;;;2.10;1.00;;;7.70;99.90;;;8.84;100.00;-20922.69;4986883;28;20836;-72
2021/05/01 06:22:32;;;;;;;0.70;0.50;;;7.50;99.90;;;8.65;100.00;-20917.69;4968593;28;20542;-70
2021/05/01 06:25:04;;;;;;;0.70;0.60;;;7.50;99.90;;;8.69;100.00;-20918.78;4991673;28;20938;-69
2021/05/01 06:27:31;;;;;;;0.70;0.60;;;7.60;99.90;;;8.79;100.00;-20921.44;4992789;28;20833;-70
2021/05/01 06:30:01;;;;;;;0.80;0.80;;;7.60;99.90;;;8.77;100.00;-20920.75;4994912;28;20540;-70
2021/05/01 06:32:29;;;;;;;0.67;0.50;;;7.70;99.90;;;8.68;100.00;-20918.50;4984255;28;20445;-71
2021/05/01 06:34:58;;;;;;;0.70;0.60;;;7.80;99.90;;;8.89;100.00;-20924.06;4992374;28;20982;-72
2021/05/01 06:37:26;;;;;;;0.87;0.87;;;7.80;99.90;;;8.97;100.00;-20926.13;4992531;28;20943;-72
2021/05/01 06:39:57;;;;;;;0.80;0.70;;;7.80;99.90;;;8.83;100.00;-20922.41;4991890;28;20470;-69
2021/05/01 06:42:29;;;;;;;0.70;0.60;;;7.70;99.90;;;8.94;100.00;-20925.44;5000355;28;20482;-71
2021/05/01 06:45:02;;;;;;;0.80;0.70;;;7.90;99.90;;;9.15;100.00;-20931.28;4988039;28;20454;-73
2021/05/01 06:47:32;;;;;;;0.70;0.60;;;7.90;99.90;;;9.17;100.00;-20931.69;4992122;28;20438;-70
2021/05/01 06:50:09;;;;;;;0.70;0.57;;;7.90;99.90;;;9.54;100.00;-20941.81;4981941;28;20470;-70
2021/05/01 06:52:38;;;;;;;0.70;0.60;;;8.10;99.90;;;9.53;100.00;-20941.53;4994557;28;20435;-71
2021/05/01 06:55:12;;;;;;;0.70;0.60;;;8.10;99.90;;;9.09;100.00;-20929.47;4993087;28;20468;-70
2021/05/01 06:57:44;;;;;;;0.70;0.60;;;8.10;99.90;;;9.56;100.00;-20942.34;4976821;28;20446;-72
2021/05/01 07:00:14;;;;;;;1.57;1.47;;;8.30;99.90;;;9.65;100.00;-20944.84;4997044;28;20789;-70
2021/05/01 07:02:44;;;;;;;0.83;0.83;;;8.50;99.90;;;9.94;100.00;-20952.59;4979035;28;20513;-73
2021/05/01 07:05:14;;;;;;;0.70;0.60;;;9.00;99.90;;;10.23;100.00;-20960.34;4993640;28;20411;-71
2021/05/01 07:07:45;;;;;;;0.90;0.80;;;9.40;99.90;;;10.58;100.00;-20970.03;4993308;28;20451;-72
2021/05/01 07:10:14;;;;;;;0.70;0.50;;;9.40;99.90;;;11.06;100.00;-20983.03;4991511;28;20696;-70
2021/05/01 07:12:42;;;;;;;0.70;0.53;;;9.50;99.90;;;11.37;100.00;-20991.47;4977425;28;20430;-70
2021/05/01 07:15:11;;;;;;;0.70;0.60;;;9.80;99.90;;;11.36;100.00;-20991.19;4997311;28;20457;-70
2021/05/01 07:17:39;;;;;;;0.70;0.60;;;9.90;99.90;;;11.46;100.00;-20993.81;4984198;28;20934;-69
2021/05/01 07:20:12;;;;;;;0.70;0.60;;;9.90;99.90;;;12.09;100.00;-21010.94;4997770;28;20438;-72
2021/05/01 07:22:41;;;;;;;0.77;0.70;;;10.30;99.90;;;12.48;100.00;-21021.44;4985714;28;20454;-71
2021/05/01 07:25:12;;;;;;;0.70;0.60;;;10.10;99.90;;;12.55;100.00;-21023.38;4994886;28;20478;-70
2021/05/01 07:27:51;;;;;;;0.70;0.60;;;10.10;99.90;;;12.15;100.00;-21012.31;4976735;28;20478;-70
2021/05/01 07:30:22;;;;;;;0.80;0.70;;;10.40;99.90;;;12.64;100.00;-21025.72;4993766;28;20937;-70
2021/05/01 07:32:54;;;;;;;0.90;0.77;;;10.40;99.90;;;13.34;100.00;-21044.63;4969441;28;20457;-70
2021/05/01 07:35:25;;;;;;;0.80;0.70;;;10.50;99.90;;;14.16;100.00;-21066.66;4982470;28;20453;-70
2021/05/01 07:37:55;;;;;;;1.00;0.80;;;10.50;99.90;;;13.84;100.00;-21058.13;5001339;28;20481;-70
2021/05/01 07:40:25;;;;;;;1.37;0.90;;;11.00;99.90;;;15.00;100.00;-21089.25;4996876;28;20946;-71
2021/05/01 07:42:55;;;;;;;1.00;0.90;;;11.10;99.90;;;14.81;100.00;-21084.28;5002222;28;20496;-71
2021/05/01 07:45:24;;;;;;;0.80;0.80;;;11.10;99.90;;;15.52;100.00;-21103.25;5007333;28;20453;-69
2021/05/01 07:47:56;;;;;;;0.70;0.67;;;10.90;99.90;;;14.76;100.00;-21082.78;4995456;28;20908;-71
2021/05/01 07:50:25;;;;;;;0.80;0.70;;;11.10;99.90;;;15.38;100.00;-21099.69;4994449;28;20468;-71
2021/05/01 07:52:56;;;;;;;1.33;0.97;;;11.10;99.90;;;14.52;100.00;-21076.31;5003788;28;20975;-72
2021/05/01 07:55:24;;;;;;;1.57;1.47;;;11.30;99.90;;;14.84;100.00;-21085.13;4993538;28;20452;-70
2021/05/01 07:57:52;;;;;;;1.03;0.90;;;11.40;99.90;;;15.44;100.00;-21101.19;4995924;28;20485;-71
2021/05/01 08:00:22;;;;;;;1.23;0.90;;;11.20;99.90;;;14.51;100.00;-21076.16;4994801;28;20462;-72
2021/05/01 08:02:50;;;;;;;1.03;0.97;;;11.50;99.90;;;15.23;100.00;-21095.56;4975371;28;20465;-72
2021/05/01 08:05:19;;;;;;;0.77;0.60;;;12.20;99.90;;;15.97;100.00;-21115.38;4986177;28;20425;-73
2021/05/01 08:07:48;;;;;;;0.70;0.60;;;12.50;99.90;;;15.84;100.00;-21112.06;4996314;28;20951;-73
2021/05/01 08:10:16;;;;;;;1.10;1.00;;;12.50;99.90;;;17.27;100.00;-21150.50;4978565;28;20521;-71
2021/05/01 08:12:44;;;;;;;1.47;1.37;;;12.30;99.90;;;17.04;100.00;-21144.19;4987130;28;20409;-72
2021/05/01 08:15:13;;;;;;;0.90;0.80;;;12.10;99.90;;;15.76;100.00;-21109.88;5004598;28;20442;-73
2021/05/01 08:17:42;;;;;;;0.80;0.70;;;11.40;99.90;;;15.29;100.00;-21097.22;5000952;28;20475;-72
2021/05/01 08:20:14;;;;;;;0.93;0.87;;;11.10;99.90;;;15.75;100.00;-21109.44;4978702;28;20430;-72
2021/05/01 08:22:41;;;;;;;0.77;0.60;;;11.40;99.90;;;15.20;100.00;-21094.88;4984390;28;20466;-73
2021/05/01 08:25:12;;;;;;;0.90;0.80;;;11.30;99.90;;;15.04;100.00;-21090.34;4997186;28;20448;-73
2021/05/01 08:27:40;;;;;;;0.70;0.60;;;11.70;99.90;;;16.19;100.00;-21121.41;4995739;28;20431;-72
2021/05/01 08:30:14;;;;;;;1.30;0.90;;;11.60;99.90;;;16.28;100.00;-21123.88;4981071;28;20588;-71
2021/05/01 08:32:42;;;;;;;1.40;1.07;;;11.70;99.90;;;15.80;100.00;-21110.97;4996252;28;20418;-72
2021/05/01 08:35:09;;;;;;;1.10;1.00;;;11.50;99.90;;;15.17;100.00;-21094.06;4985224;28;20418;-73
2021/05/01 08:37:37;;;;;;;0.80;0.67;;;11.10;99.90;;;15.36;100.00;-21099.13;4996230;28;20435;-71
2021/05/01 08:40:08;;;;;;;1.20;0.90;;;11.80;99.90;;;15.14;100.00;-21093.22;4981087;28;20441;-72
2021/05/01 08:42:36;;;;;;;1.70;1.00;;;12.50;99.90;;;15.41;100.00;-21100.38;5003516;28;20427;-71
2021/05/01 08:45:06;;;;;;;0.80;0.70;;;13.30;99.90;;;16.73;100.00;-21135.97;4988907;28;20435;-71
2021/05/01 08:47:38;;;;;;;1.33;1.23;;;13.30;99.90;;;18.03;100.00;-21170.94;4995251;28;20433;-72
2021/05/01 08:50:09;;;;;;;1.10;1.00;;;13.10;99.90;;;17.00;100.00;-21143.09;5001872;28;20540;-72
2021/05/01 08:52:38;;;;;;;2.93;1.23;;;13.10;99.90;;;17.63;100.00;-21160.25;5000683;28;20423;-72
2021/05/01 08:55:05;;;;;;;1.00;0.90;;;12.80;99.90;;;18.15;100.00;-21174.09;4989352;28;20454;-72
2021/05/01 08:57:33;;;;;;;1.20;1.10;;;12.70;97.40;;;16.99;100.00;-21142.97;4995664;28;20435;-70
2021/05/01 09:00:03;;;;;;;1.00;0.87;;;13.40;97.70;;;17.56;100.00;-21158.19;4991968;28;20446;-72
2021/05/01 09:02:31;;;;;;;0.83;0.83;;;12.70;92.90;;;16.11;100.00;-21119.34;4982806;28;20876;-73
2021/05/01 09:04:59;;;;;;;0.80;0.80;;;12.20;91.40;;;14.28;100.00;-21069.97;4996312;28;20506;-70
2021/05/01 09:07:28;;;;;;;0.80;0.70;;;12.10;90.50;;;14.85;100.00;-21085.38;4995824;28;20422;-72
2021/05/01 09:10:00;;;;;;;1.07;0.97;;;11.70;87.90;;;15.61;100.00;-21105.72;4990821;28;20885;-72
2021/05/01 09:12:36;;;;;;;0.80;0.70;;;11.80;87.20;;;16.43;100.00;-21128.00;4993945;28;20436;-71
2021/05/01 09:15:08;;;;;;;0.80;0.70;;;12.70;84.90;;;16.98;100.00;-21142.56;5002217;28;20477;-73
2021/05/01 09:17:36;;;;;;;1.30;1.00;;;13.30;77.80;;;16.71;100.00;-21135.41;5005855;28;20465;-70
2021/05/01 09:20:08;;;;;;;0.90;0.80;;;14.30;75.80;;;19.36;100.00;-21206.38;4976943;28;20425;-71
2021/05/01 09:22:52;;;;;;;1.47;1.37;;;14.00;62.90;;;19.30;100.00;-21204.88;4995397;28;20406;-72
2021/05/01 09:25:21;;;;;;;0.83;0.83;;;13.90;56.40;;;18.32;100.00;-21178.75;4995064;28;20974;-72
2021/05/01 09:28:07;;;;;;;1.80;1.13;;;14.60;59.30;;;19.00;100.00;-21196.81;4992851;28;20461;-72
2021/05/01 09:30:40;;;;;;;1.90;0.87;;;14.90;54.20;;;18.71;100.00;-21189.16;4998336;28;20473;-72
2021/05/01 09:33:25;;;;;;;0.80;0.77;;;14.40;50.00;;;19.92;93.33;-21221.44;5013398;28;20477;-71
2021/05/01 09:36:07;;;;;;;0.87;0.83;;;13.80;42.70;;;19.65;94.72;-21214.19;4997313;28;20414;-71
2021/05/01 09:38:39;;;;;;;0.73;0.70;;;14.60;41.00;;;20.22;87.04;-21229.63;4996319;28;20444;-72
2021/05/01 09:41:13;;;;;;;1.40;1.27;;;14.50;37.40;;;20.44;82.31;-21235.38;4981150;28;20542;-71
2021/05/01 09:44:04;;;;;;;0.77;0.67;;;14.20;30.10;;;18.68;89.12;-21188.31;5003583;28;20457;-70
2021/05/01 09:46:46;;;;;;;0.70;0.60;;;14.60;34.30;;;17.68;100.00;-21161.47;4993069;28;20509;-72
2021/05/01 09:49:18;;;;;;;1.03;0.93;;;15.20;37.40;;;17.55;94.00;-21157.91;4975192;28;20770;-71
2021/05/01 09:51:53;;;;;;;0.80;0.70;;;15.10;29.40;;;18.99;100.00;-21196.53;4976857;28;20470;-71
2021/05/01 09:54:25;;;;;;;1.27;1.17;;;14.50;39.10;;;16.73;100.00;-21135.97;4976618;28;20989;-71
2021/05/01 09:56:57;;;;;;;3.43;1.20;;;14.50;40.00;;;17.94;100.00;-21168.34;4992532;28;20423;-72
2021/05/01 09:59:35;;;;;;;1.27;1.17;;;14.30;42.00;;;17.68;100.00;-21161.47;4994444;28;20795;-75
2021/05/01 10:02:03;;;;;;;0.90;0.70;;;13.60;39.80;;;16.32;100.00;-21124.97;4974118;28;20422;-70
2021/05/01 10:04:30;;;;;;;0.73;0.60;;;13.80;43.20;;;17.67;100.00;-21161.19;4974814;28;20496;-71
2021/05/01 10:07:06;;;;;;;3.23;0.97;;;14.20;36.20;;;18.72;97.47;-21189.28;4975435;28;20509;-71
2021/05/01 10:09:36;;;;;;;0.80;0.77;;;14.60;33.70;;;19.07;99.00;-21198.72;4994628;28;20465;-70
2021/05/01 10:12:14;;;;;;;0.80;0.70;;;15.20;33.80;;;17.90;100.00;-21167.25;5002226;28;20540;-72
2021/05/01 10:14:46;;;;;;;1.50;1.20;;;15.00;34.90;;;17.25;99.58;-21149.81;4976765;28;20413;-71
2021/05/01 10:17:15;;;;;;;1.47;1.37;;;15.50;29.80;;;19.55;93.12;-21211.59;4994587;28;20438;-72
2021/05/01 10:19:45;;;;;;;1.83;1.73;;;15.50;27.30;;;16.63;98.26;-21133.22;4973538;28;20435;-71
2021/05/01 10:22:42;;;;;;;0.70;0.60;;;15.60;28.40;;;19.52;94.87;-21210.91;4982323;28;20451;-71
2021/05/01 10:25:12;;;;;;;0.70;0.60;;;15.00;30.30;;;19.44;98.14;-21208.56;4945360;28;20455;-72